sensor_id;sensor_type;location;lat;lon;timestamp;temperature;humidity
62573;DHT22;48626;51.678;5.806;2023-12-07T00:00:50;1.70;99.90
62573;DHT22;48626;51.678;5.806;2023-12-07T00:03:15;1.70;99.90
62573;DHT22;48626;51.678;5.806;2023-12-07T00:05:41;1.70;99.90
62573;DHT22;48626;51.678;5.806;2023-12-07T00:08:09;1.60;99.90
62573;DHT22;48626;51.678;5.806;2023-12-07T00:10:34;1.60;99.90
62573;DHT22;48626;51.678;5.806;2023-12-07T00:13:00;1.60;99.90
62573;DHT22;48626;51.678;5.806;2023-12-07T00:15:26;1.60;99.90
62573;DHT22;48626;51.678;5.806;2023-12-07T00:17:51;1.60;99.90
62573;DHT22;48626;51.678;5.806;2023-12-07T00:20:17;1.50;99.90
62573;DHT22;48626;51.678;5.806;2023-12-07T00:22:43;1.50;99.90
62573;DHT22;48626;51.678;5.806;2023-12-07T00:25:08;1.40;99.90
62573;DHT22;48626;51.678;5.806;2023-12-07T00:27:34;1.40;99.90
62573;DHT22;48626;51.678;5.806;2023-12-07T00:29:59;1.30;99.90
62573;DHT22;48626;51.678;5.806;2023-12-07T00:32:25;1.30;99.90
62573;DHT22;48626;51.678;5.806;2023-12-07T00:34:52;1.30;99.90
62573;DHT22;48626;51.678;5.806;2023-12-07T00:37:18;1.20;99.90
62573;DHT22;48626;51.678;5.806;2023-12-07T00:39:43;1.20;99.90
62573;DHT22;48626;51.678;5.806;2023-12-07T00:42:09;1.20;99.90
62573;DHT22;48626;51.678;5.806;2023-12-07T00:44:38;1.10;99.90
62573;DHT22;48626;51.678;5.806;2023-12-07T00:47:04;1.10;99.90
62573;DHT22;48626;51.678;5.806;2023-12-07T00:49:30;1.10;99.90
62573;DHT22;48626;51.678;5.806;2023-12-07T00:51:55;1.00;99.90
62573;DHT22;48626;51.678;5.806;2023-12-07T00:54:21;1.00;99.90
62573;DHT22;48626;51.678;5.806;2023-12-07T00:56:46;1.00;99.90
62573;DHT22;48626;51.678;5.806;2023-12-07T00:59:12;1.00;99.90
62573;DHT22;48626;51.678;5.806;2023-12-07T01:01:37;1.00;99.90
62573;DHT22;48626;51.678;5.806;2023-12-07T01:04:04;1.00;99.90
62573;DHT22;48626;51.678;5.806;2023-12-07T01:06:30;0.90;99.90
62573;DHT22;48626;51.678;5.806;2023-12-07T01:08:56;0.90;99.90
62573;DHT22;48626;51.678;5.806;2023-12-07T01:11:22;0.90;99.90
62573;DHT22;48626;51.678;5.806;2023-12-07T01:13:47;0.90;99.90
62573;DHT22;48626;51.678;5.806;2023-12-07T01:16:13;0.90;99.90
62573;DHT22;48626;51.678;5.806;2023-12-07T01:18:38;0.80;99.90
62573;DHT22;48626;51.678;5.806;2023-12-07T01:21:04;0.80;99.90
62573;DHT22;48626;51.678;5.806;2023-12-07T01:23:29;0.80;99.90
62573;DHT22;48626;51.678;5.806;2023-12-07T01:25:55;0.70;99.90
62573;DHT22;48626;51.678;5.806;2023-12-07T01:28:20;0.70;99.90
62573;DHT22;48626;51.678;5.806;2023-12-07T01:30:46;0.70;99.90
62573;DHT22;48626;51.678;5.806;2023-12-07T01:33:11;0.70;99.90
62573;DHT22;48626;51.678;5.806;2023-12-07T01:35:37;0.70;99.90
62573;DHT22;48626;51.678;5.806;2023-12-07T01:38:02;0.70;99.90
62573;DHT22;48626;51.678;5.806;2023-12-07T01:40:28;0.70;99.90
62573;DHT22;48626;51.678;5.806;2023-12-07T01:42:53;0.70;99.90
62573;DHT22;48626;51.678;5.806;2023-12-07T01:45:19;0.70;99.90
62573;DHT22;48626;51.678;5.806;2023-12-07T01:47:45;0.60;99.90
62573;DHT22;48626;51.678;5.806;2023-12-07T01:50:11;0.60;99.90
62573;DHT22;48626;51.678;5.806;2023-12-07T01:52:41;0.60;99.90
62573;DHT22;48626;51.678;5.806;2023-12-07T01:55:08;0.60;99.90
62573;DHT22;48626;51.678;5.806;2023-12-07T01:57:34;0.60;99.90
62573;DHT22;48626;51.678;5.806;2023-12-07T02:00:01;0.60;99.90
62573;DHT22;48626;51.678;5.806;2023-12-07T02:02:26;0.60;99.90
62573;DHT22;48626;51.678;5.806;2023-12-07T02:04:52;0.50;99.90
62573;DHT22;48626;51.678;5.806;2023-12-07T02:07:17;0.50;99.90
62573;DHT22;48626;51.678;5.806;2023-12-07T02:09:43;0.60;99.90
62573;DHT22;48626;51.678;5.806;2023-12-07T02:12:09;0.50;99.90
62573;DHT22;48626;51.678;5.806;2023-12-07T02:14:34;0.50;99.90
62573;DHT22;48626;51.678;5.806;2023-12-07T02:17:08;0.60;99.90
62573;DHT22;48626;51.678;5.806;2023-12-07T02:19:46;0.60;99.90
62573;DHT22;48626;51.678;5.806;2023-12-07T02:22:14;0.60;99.90
62573;DHT22;48626;51.678;5.806;2023-12-07T02:24:44;0.70;99.90
62573;DHT22;48626;51.678;5.806;2023-12-07T02:27:13;0.80;99.90
62573;DHT22;48626;51.678;5.806;2023-12-07T02:29:38;0.80;99.90
62573;DHT22;48626;51.678;5.806;2023-12-07T02:32:04;0.80;99.90
62573;DHT22;48626;51.678;5.806;2023-12-07T02:34:30;0.90;99.90
62573;DHT22;48626;51.678;5.806;2023-12-07T02:36:55;0.90;99.90
62573;DHT22;48626;51.678;5.806;2023-12-07T02:39:22;0.90;99.90
62573;DHT22;48626;51.678;5.806;2023-12-07T02:41:48;1.00;99.90
62573;DHT22;48626;51.678;5.806;2023-12-07T02:44:14;1.00;99.90
62573;DHT22;48626;51.678;5.806;2023-12-07T02:46:40;1.00;99.90
62573;DHT22;48626;51.678;5.806;2023-12-07T02:49:05;1.00;99.90
62573;DHT22;48626;51.678;5.806;2023-12-07T02:51:31;1.10;99.90
62573;DHT22;48626;51.678;5.806;2023-12-07T02:53:56;1.00;99.90
62573;DHT22;48626;51.678;5.806;2023-12-07T02:56:22;1.10;99.90
62573;DHT22;48626;51.678;5.806;2023-12-07T02:58:47;1.10;99.90
62573;DHT22;48626;51.678;5.806;2023-12-07T03:01:13;1.10;99.90
62573;DHT22;48626;51.678;5.806;2023-12-07T03:03:38;1.20;99.90
62573;DHT22;48626;51.678;5.806;2023-12-07T03:06:06;1.20;99.90
62573;DHT22;48626;51.678;5.806;2023-12-07T03:08:31;1.20;99.90
62573;DHT22;48626;51.678;5.806;2023-12-07T03:10:57;1.20;99.90
62573;DHT22;48626;51.678;5.806;2023-12-07T03:13:22;1.20;99.90
62573;DHT22;48626;51.678;5.806;2023-12-07T03:15:48;1.30;99.90
62573;DHT22;48626;51.678;5.806;2023-12-07T03:18:13;1.30;99.90
62573;DHT22;48626;51.678;5.806;2023-12-07T03:20:39;1.30;99.90
62573;DHT22;48626;51.678;5.806;2023-12-07T03:23:04;1.20;99.90
62573;DHT22;48626;51.678;5.806;2023-12-07T03:25:30;1.30;99.90
62573;DHT22;48626;51.678;5.806;2023-12-07T03:27:55;1.30;99.90
62573;DHT22;48626;51.678;5.806;2023-12-07T03:30:21;1.20;99.90
62573;DHT22;48626;51.678;5.806;2023-12-07T03:32:47;1.20;99.90
62573;DHT22;48626;51.678;5.806;2023-12-07T03:35:12;1.20;99.90
62573;DHT22;48626;51.678;5.806;2023-12-07T03:37:37;1.20;99.90
62573;DHT22;48626;51.678;5.806;2023-12-07T03:40:03;1.20;99.90
62573;DHT22;48626;51.678;5.806;2023-12-07T03:42:31;1.30;99.90
62573;DHT22;48626;51.678;5.806;2023-12-07T03:44:56;1.30;99.90
62573;DHT22;48626;51.678;5.806;2023-12-07T03:47:22;1.30;99.90
62573;DHT22;48626;51.678;5.806;2023-12-07T03:49:47;1.30;99.90
62573;DHT22;48626;51.678;5.806;2023-12-07T03:52:13;1.40;99.90
62573;DHT22;48626;51.678;5.806;2023-12-07T03:54:38;1.40;99.90
62573;DHT22;48626;51.678;5.806;2023-12-07T03:57:04;1.40;99.90
62573;DHT22;48626;51.678;5.806;2023-12-07T03:59:30;1.50;99.90
62573;DHT22;48626;51.678;5.806;2023-12-07T04:01:55;1.50;99.90
62573;DHT22;48626;51.678;5.806;2023-12-07T04:04:21;1.50;99.90
62573;DHT22;48626;51.678;5.806;2023-12-07T04:06:47;1.50;99.90
62573;DHT22;48626;51.678;5.806;2023-12-07T04:09:13;1.50;99.90
62573;DHT22;48626;51.678;5.806;2023-12-07T04:11:39;1.50;99.90
62573;DHT22;48626;51.678;5.806;2023-12-07T04:14:04;1.50;99.90
62573;DHT22;48626;51.678;5.806;2023-12-07T04:16:30;1.50;99.90
62573;DHT22;48626;51.678;5.806;2023-12-07T04:18:56;1.50;99.90
62573;DHT22;48626;51.678;5.806;2023-12-07T04:21:21;1.50;99.90
62573;DHT22;48626;51.678;5.806;2023-12-07T04:23:47;1.50;99.90
62573;DHT22;48626;51.678;5.806;2023-12-07T04:26:12;1.50;99.90
62573;DHT22;48626;51.678;5.806;2023-12-07T04:28:38;1.60;99.90
62573;DHT22;48626;51.678;5.806;2023-12-07T04:31:04;1.60;99.90
62573;DHT22;48626;51.678;5.806;2023-12-07T04:33:29;1.60;99.90
62573;DHT22;48626;51.678;5.806;2023-12-07T04:35:55;1.50;99.90
62573;DHT22;48626;51.678;5.806;2023-12-07T04:38:20;1.60;99.90
62573;DHT22;48626;51.678;5.806;2023-12-07T04:40:46;1.60;99.90
62573;DHT22;48626;51.678;5.806;2023-12-07T04:43:11;1.60;99.90
62573;DHT22;48626;51.678;5.806;2023-12-07T04:45:37;1.60;99.90
62573;DHT22;48626;51.678;5.806;2023-12-07T04:48:03;1.60;99.90
62573;DHT22;48626;51.678;5.806;2023-12-07T04:50:29;1.60;99.90
62573;DHT22;48626;51.678;5.806;2023-12-07T04:52:55;1.60;99.90
62573;DHT22;48626;51.678;5.806;2023-12-07T04:55:20;1.60;99.90
62573;DHT22;48626;51.678;5.806;2023-12-07T04:57:46;1.60;99.90
62573;DHT22;48626;51.678;5.806;2023-12-07T05:00:12;1.70;99.90
62573;DHT22;48626;51.678;5.806;2023-12-07T05:02:38;1.60;99.90
62573;DHT22;48626;51.678;5.806;2023-12-07T05:05:04;1.60;99.90
62573;DHT22;48626;51.678;5.806;2023-12-07T05:07:30;1.60;99.90
62573;DHT22;48626;51.678;5.806;2023-12-07T05:09:55;1.60;99.90
62573;DHT22;48626;51.678;5.806;2023-12-07T05:12:21;1.60;99.90
62573;DHT22;48626;51.678;5.806;2023-12-07T05:14:46;1.60;99.90
62573;DHT22;48626;51.678;5.806;2023-12-07T05:17:12;1.70;99.90
62573;DHT22;48626;51.678;5.806;2023-12-07T05:19:38;1.60;99.90
62573;DHT22;48626;51.678;5.806;2023-12-07T05:22:03;1.60;99.90
62573;DHT22;48626;51.678;5.806;2023-12-07T05:24:29;1.70;99.90
62573;DHT22;48626;51.678;5.806;2023-12-07T05:26:56;1.70;99.90
62573;DHT22;48626;51.678;5.806;2023-12-07T05:29:22;1.70;99.90
62573;DHT22;48626;51.678;5.806;2023-12-07T05:31:49;1.70;99.90
62573;DHT22;48626;51.678;5.806;2023-12-07T05:34:15;1.70;99.90
62573;DHT22;48626;51.678;5.806;2023-12-07T05:36:41;1.70;99.90
62573;DHT22;48626;51.678;5.806;2023-12-07T05:39:07;1.70;99.90
62573;DHT22;48626;51.678;5.806;2023-12-07T05:41:32;1.70;99.90
62573;DHT22;48626;51.678;5.806;2023-12-07T05:43:58;1.70;99.90
62573;DHT22;48626;51.678;5.806;2023-12-07T05:46:23;1.80;99.90
62573;DHT22;48626;51.678;5.806;2023-12-07T05:48:49;1.70;99.90
62573;DHT22;48626;51.678;5.806;2023-12-07T05:51:15;1.70;99.90
62573;DHT22;48626;51.678;5.806;2023-12-07T05:53:41;1.70;99.90
62573;DHT22;48626;51.678;5.806;2023-12-07T05:56:07;1.70;99.90
62573;DHT22;48626;51.678;5.806;2023-12-07T05:58:33;1.70;99.90
62573;DHT22;48626;51.678;5.806;2023-12-07T06:00:59;1.70;99.90
62573;DHT22;48626;51.678;5.806;2023-12-07T06:03:25;1.70;99.90
62573;DHT22;48626;51.678;5.806;2023-12-07T06:05:51;1.70;99.90
62573;DHT22;48626;51.678;5.806;2023-12-07T06:08:17;1.80;99.90
62573;DHT22;48626;51.678;5.806;2023-12-07T06:10:42;1.70;99.90
62573;DHT22;48626;51.678;5.806;2023-12-07T06:13:08;1.70;99.90
62573;DHT22;48626;51.678;5.806;2023-12-07T06:15:33;1.70;99.90
62573;DHT22;48626;51.678;5.806;2023-12-07T06:17:59;1.70;99.90
62573;DHT22;48626;51.678;5.806;2023-12-07T06:20:25;1.70;99.90
62573;DHT22;48626;51.678;5.806;2023-12-07T06:22:50;1.70;99.90
62573;DHT22;48626;51.678;5.806;2023-12-07T06:25:16;1.70;99.90
62573;DHT22;48626;51.678;5.806;2023-12-07T06:27:41;1.70;99.90
62573;DHT22;48626;51.678;5.806;2023-12-07T06:30:07;1.70;99.90
62573;DHT22;48626;51.678;5.806;2023-12-07T06:32:32;1.70;99.90
62573;DHT22;48626;51.678;5.806;2023-12-07T06:34:59;1.70;99.90
62573;DHT22;48626;51.678;5.806;2023-12-07T06:37:24;1.70;99.90
62573;DHT22;48626;51.678;5.806;2023-12-07T06:39:50;1.70;99.90
62573;DHT22;48626;51.678;5.806;2023-12-07T06:42:15;1.70;99.90
62573;DHT22;48626;51.678;5.806;2023-12-07T06:44:50;1.70;99.90
62573;DHT22;48626;51.678;5.806;2023-12-07T06:47:16;1.70;99.90
62573;DHT22;48626;51.678;5.806;2023-12-07T06:49:42;1.70;99.90
62573;DHT22;48626;51.678;5.806;2023-12-07T06:52:07;1.70;99.90
62573;DHT22;48626;51.678;5.806;2023-12-07T06:54:33;1.70;99.90
62573;DHT22;48626;51.678;5.806;2023-12-07T06:56:59;1.70;99.90
62573;DHT22;48626;51.678;5.806;2023-12-07T06:59:24;1.70;99.90
62573;DHT22;48626;51.678;5.806;2023-12-07T07:01:50;1.70;99.90
62573;DHT22;48626;51.678;5.806;2023-12-07T07:04:15;1.70;99.90
62573;DHT22;48626;51.678;5.806;2023-12-07T07:06:41;1.70;99.90
62573;DHT22;48626;51.678;5.806;2023-12-07T07:09:07;1.80;99.90
62573;DHT22;48626;51.678;5.806;2023-12-07T07:11:33;1.80;99.90
62573;DHT22;48626;51.678;5.806;2023-12-07T07:13:59;1.70;99.90
62573;DHT22;48626;51.678;5.806;2023-12-07T07:16:25;1.80;99.90
62573;DHT22;48626;51.678;5.806;2023-12-07T07:18:50;1.80;99.90
62573;DHT22;48626;51.678;5.806;2023-12-07T07:21:16;1.80;99.90
62573;DHT22;48626;51.678;5.806;2023-12-07T07:23:41;1.80;99.90
62573;DHT22;48626;51.678;5.806;2023-12-07T07:26:07;1.80;99.90
62573;DHT22;48626;51.678;5.806;2023-12-07T07:28:33;1.80;99.90
62573;DHT22;48626;51.678;5.806;2023-12-07T07:31:00;1.80;99.90
62573;DHT22;48626;51.678;5.806;2023-12-07T07:33:25;1.80;99.90
62573;DHT22;48626;51.678;5.806;2023-12-07T07:35:51;1.80;99.90
62573;DHT22;48626;51.678;5.806;2023-12-07T07:38:16;1.80;99.90
62573;DHT22;48626;51.678;5.806;2023-12-07T07:40:42;1.80;99.90
62573;DHT22;48626;51.678;5.806;2023-12-07T07:43:07;1.80;99.90
62573;DHT22;48626;51.678;5.806;2023-12-07T07:45:33;1.80;99.90
62573;DHT22;48626;51.678;5.806;2023-12-07T07:47:58;1.80;99.90
62573;DHT22;48626;51.678;5.806;2023-12-07T07:50:24;1.90;99.90
62573;DHT22;48626;51.678;5.806;2023-12-07T07:52:49;1.80;99.90
62573;DHT22;48626;51.678;5.806;2023-12-07T07:55:15;1.80;99.90
62573;DHT22;48626;51.678;5.806;2023-12-07T07:57:40;1.90;99.90
62573;DHT22;48626;51.678;5.806;2023-12-07T08:00:06;1.90;99.90
62573;DHT22;48626;51.678;5.806;2023-12-07T08:02:34;1.80;99.90
62573;DHT22;48626;51.678;5.806;2023-12-07T08:04:59;1.90;99.90
62573;DHT22;48626;51.678;5.806;2023-12-07T08:07:25;1.90;99.90
62573;DHT22;48626;51.678;5.806;2023-12-07T08:09:50;1.90;99.90
62573;DHT22;48626;51.678;5.806;2023-12-07T08:12:16;1.90;99.90
62573;DHT22;48626;51.678;5.806;2023-12-07T08:14:41;1.90;99.90
62573;DHT22;48626;51.678;5.806;2023-12-07T08:17:09;1.90;99.90
62573;DHT22;48626;51.678;5.806;2023-12-07T08:19:34;1.90;99.90
62573;DHT22;48626;51.678;5.806;2023-12-07T08:22:00;2.00;99.90
62573;DHT22;48626;51.678;5.806;2023-12-07T08:24:25;2.00;99.90
62573;DHT22;48626;51.678;5.806;2023-12-07T08:26:51;2.00;99.90
62573;DHT22;48626;51.678;5.806;2023-12-07T08:29:16;2.00;99.90
62573;DHT22;48626;51.678;5.806;2023-12-07T08:31:42;2.00;99.90
62573;DHT22;48626;51.678;5.806;2023-12-07T08:34:07;2.00;99.90
62573;DHT22;48626;51.678;5.806;2023-12-07T08:36:33;2.00;99.90
62573;DHT22;48626;51.678;5.806;2023-12-07T08:38:58;2.00;99.90
62573;DHT22;48626;51.678;5.806;2023-12-07T08:41:24;2.00;99.90
62573;DHT22;48626;51.678;5.806;2023-12-07T08:43:50;2.10;99.90
62573;DHT22;48626;51.678;5.806;2023-12-07T08:46:15;2.00;99.90
62573;DHT22;48626;51.678;5.806;2023-12-07T08:48:41;2.10;99.90
62573;DHT22;48626;51.678;5.806;2023-12-07T08:51:06;2.10;99.90
62573;DHT22;48626;51.678;5.806;2023-12-07T08:53:34;2.10;99.90
62573;DHT22;48626;51.678;5.806;2023-12-07T08:56:01;2.10;99.90
62573;DHT22;48626;51.678;5.806;2023-12-07T08:58:26;2.10;99.90
62573;DHT22;48626;51.678;5.806;2023-12-07T09:00:52;2.20;99.90
62573;DHT22;48626;51.678;5.806;2023-12-07T09:03:17;2.20;99.90
62573;DHT22;48626;51.678;5.806;2023-12-07T09:05:43;2.20;99.90
62573;DHT22;48626;51.678;5.806;2023-12-07T09:08:09;2.20;99.90
62573;DHT22;48626;51.678;5.806;2023-12-07T09:10:35;2.30;99.90
62573;DHT22;48626;51.678;5.806;2023-12-07T09:13:00;2.30;99.90
62573;DHT22;48626;51.678;5.806;2023-12-07T09:15:26;2.40;99.90
62573;DHT22;48626;51.678;5.806;2023-12-07T09:17:51;2.40;99.90
62573;DHT22;48626;51.678;5.806;2023-12-07T09:20:17;2.40;99.90
62573;DHT22;48626;51.678;5.806;2023-12-07T09:22:43;2.50;99.90
62573;DHT22;48626;51.678;5.806;2023-12-07T09:25:09;2.50;99.90
62573;DHT22;48626;51.678;5.806;2023-12-07T09:27:35;2.50;99.90
62573;DHT22;48626;51.678;5.806;2023-12-07T09:30:06;2.50;99.90
62573;DHT22;48626;51.678;5.806;2023-12-07T09:32:32;2.50;99.90
62573;DHT22;48626;51.678;5.806;2023-12-07T09:35:06;2.60;99.90
62573;DHT22;48626;51.678;5.806;2023-12-07T09:37:44;2.60;99.90
62573;DHT22;48626;51.678;5.806;2023-12-07T09:40:17;2.70;99.90
62573;DHT22;48626;51.678;5.806;2023-12-07T09:42:43;2.70;99.90
62573;DHT22;48626;51.678;5.806;2023-12-07T09:45:08;2.80;99.90
62573;DHT22;48626;51.678;5.806;2023-12-07T09:47:34;2.80;99.90
62573;DHT22;48626;51.678;5.806;2023-12-07T09:50:02;2.80;99.90
62573;DHT22;48626;51.678;5.806;2023-12-07T09:52:28;2.90;99.90
62573;DHT22;48626;51.678;5.806;2023-12-07T09:54:53;2.90;99.90
62573;DHT22;48626;51.678;5.806;2023-12-07T09:57:20;3.00;99.90
62573;DHT22;48626;51.678;5.806;2023-12-07T09:59:46;3.00;99.90
62573;DHT22;48626;51.678;5.806;2023-12-07T10:02:13;3.10;99.90
62573;DHT22;48626;51.678;5.806;2023-12-07T10:04:38;3.10;99.90
62573;DHT22;48626;51.678;5.806;2023-12-07T10:07:04;3.20;99.90
62573;DHT22;48626;51.678;5.806;2023-12-07T10:09:34;3.20;99.90
62573;DHT22;48626;51.678;5.806;2023-12-07T10:12:03;3.30;99.90
62573;DHT22;48626;51.678;5.806;2023-12-07T10:14:29;3.40;99.90
62573;DHT22;48626;51.678;5.806;2023-12-07T10:16:55;3.40;99.90
62573;DHT22;48626;51.678;5.806;2023-12-07T10:19:21;3.40;99.90
62573;DHT22;48626;51.678;5.806;2023-12-07T10:21:51;3.50;99.90
62573;DHT22;48626;51.678;5.806;2023-12-07T10:24:20;3.50;99.90
62573;DHT22;48626;51.678;5.806;2023-12-07T10:26:46;3.60;99.90
62573;DHT22;48626;51.678;5.806;2023-12-07T10:29:12;3.60;99.90
62573;DHT22;48626;51.678;5.806;2023-12-07T10:31:38;3.60;99.90
62573;DHT22;48626;51.678;5.806;2023-12-07T10:34:04;3.70;99.90
62573;DHT22;48626;51.678;5.806;2023-12-07T10:36:30;3.70;99.90
62573;DHT22;48626;51.678;5.806;2023-12-07T10:38:55;3.70;99.90
62573;DHT22;48626;51.678;5.806;2023-12-07T10:41:21;3.80;99.90
62573;DHT22;48626;51.678;5.806;2023-12-07T10:43:49;3.80;99.90
62573;DHT22;48626;51.678;5.806;2023-12-07T10:46:16;3.90;99.90
62573;DHT22;48626;51.678;5.806;2023-12-07T10:48:44;4.00;99.90
62573;DHT22;48626;51.678;5.806;2023-12-07T10:51:13;4.10;99.90
62573;DHT22;48626;51.678;5.806;2023-12-07T10:53:42;4.20;99.90
62573;DHT22;48626;51.678;5.806;2023-12-07T10:56:14;4.20;99.90
62573;DHT22;48626;51.678;5.806;2023-12-07T10:58:41;4.30;99.90
62573;DHT22;48626;51.678;5.806;2023-12-07T11:01:07;4.40;99.90
62573;DHT22;48626;51.678;5.806;2023-12-07T11:03:34;4.40;99.90
62573;DHT22;48626;51.678;5.806;2023-12-07T11:06:00;4.40;99.90
62573;DHT22;48626;51.678;5.806;2023-12-07T11:08:28;4.40;99.90
62573;DHT22;48626;51.678;5.806;2023-12-07T11:13:32;4.60;99.90
62573;DHT22;48626;51.678;5.806;2023-12-07T11:15:59;4.60;99.90
62573;DHT22;48626;51.678;5.806;2023-12-07T11:18:25;4.60;99.90
62573;DHT22;48626;51.678;5.806;2023-12-07T11:20:52;4.60;99.90
62573;DHT22;48626;51.678;5.806;2023-12-07T11:23:18;4.60;99.90
62573;DHT22;48626;51.678;5.806;2023-12-07T11:25:45;4.70;99.90
62573;DHT22;48626;51.678;5.806;2023-12-07T11:28:11;4.60;99.90
62573;DHT22;48626;51.678;5.806;2023-12-07T11:30:37;4.60;99.90
62573;DHT22;48626;51.678;5.806;2023-12-07T11:33:03;4.60;99.90
62573;DHT22;48626;51.678;5.806;2023-12-07T11:35:29;4.50;99.90
62573;DHT22;48626;51.678;5.806;2023-12-07T11:40:29;4.40;99.90
62573;DHT22;48626;51.678;5.806;2023-12-07T11:42:54;4.30;99.90
62573;DHT22;48626;51.678;5.806;2023-12-07T11:45:36;4.20;99.90
62573;DHT22;48626;51.678;5.806;2023-12-07T11:48:08;4.10;99.90
62573;DHT22;48626;51.678;5.806;2023-12-07T11:50:33;4.10;99.90
62573;DHT22;48626;51.678;5.806;2023-12-07T11:52:59;4.00;99.90
62573;DHT22;48626;51.678;5.806;2023-12-07T11:55:24;4.00;99.90
62573;DHT22;48626;51.678;5.806;2023-12-07T11:57:50;4.20;99.90
62573;DHT22;48626;51.678;5.806;2023-12-07T12:00:16;4.30;99.90
62573;DHT22;48626;51.678;5.806;2023-12-07T12:02:42;4.40;99.90
62573;DHT22;48626;51.678;5.806;2023-12-07T12:05:09;4.40;99.90
62573;DHT22;48626;51.678;5.806;2023-12-07T12:07:35;4.40;99.90
62573;DHT22;48626;51.678;5.806;2023-12-07T12:10:03;4.50;99.90
62573;DHT22;48626;51.678;5.806;2023-12-07T12:12:29;4.70;99.90
62573;DHT22;48626;51.678;5.806;2023-12-07T12:14:54;4.80;99.90
62573;DHT22;48626;51.678;5.806;2023-12-07T12:17:20;4.90;99.90
62573;DHT22;48626;51.678;5.806;2023-12-07T12:19:46;5.00;99.90
62573;DHT22;48626;51.678;5.806;2023-12-07T12:22:11;5.10;99.90
62573;DHT22;48626;51.678;5.806;2023-12-07T12:24:37;5.10;99.90
62573;DHT22;48626;51.678;5.806;2023-12-07T12:27:04;5.10;99.90
62573;DHT22;48626;51.678;5.806;2023-12-07T12:29:30;5.10;99.90
62573;DHT22;48626;51.678;5.806;2023-12-07T12:31:57;5.10;99.90
62573;DHT22;48626;51.678;5.806;2023-12-07T12:34:22;5.00;99.90
62573;DHT22;48626;51.678;5.806;2023-12-07T12:36:49;5.10;99.90
62573;DHT22;48626;51.678;5.806;2023-12-07T12:39:15;5.00;99.90
62573;DHT22;48626;51.678;5.806;2023-12-07T12:41:40;4.90;99.90
62573;DHT22;48626;51.678;5.806;2023-12-07T12:44:06;4.80;99.90
62573;DHT22;48626;51.678;5.806;2023-12-07T12:46:31;4.70;99.90
62573;DHT22;48626;51.678;5.806;2023-12-07T12:48:59;4.70;99.90
62573;DHT22;48626;51.678;5.806;2023-12-07T12:51:26;4.60;99.90
62573;DHT22;48626;51.678;5.806;2023-12-07T12:53:52;4.60;99.90
62573;DHT22;48626;51.678;5.806;2023-12-07T12:56:19;4.70;99.90
62573;DHT22;48626;51.678;5.806;2023-12-07T12:58:45;4.70;99.90
62573;DHT22;48626;51.678;5.806;2023-12-07T13:01:11;4.70;99.90
62573;DHT22;48626;51.678;5.806;2023-12-07T13:03:36;4.70;99.90
62573;DHT22;48626;51.678;5.806;2023-12-07T13:06:02;4.70;99.90
62573;DHT22;48626;51.678;5.806;2023-12-07T13:08:28;4.70;99.90
62573;DHT22;48626;51.678;5.806;2023-12-07T13:10:53;4.70;99.90
62573;DHT22;48626;51.678;5.806;2023-12-07T13:13:19;4.80;99.90
62573;DHT22;48626;51.678;5.806;2023-12-07T13:15:44;4.70;99.90
62573;DHT22;48626;51.678;5.806;2023-12-07T13:18:10;4.70;99.90
62573;DHT22;48626;51.678;5.806;2023-12-07T13:20:35;4.70;99.90
62573;DHT22;48626;51.678;5.806;2023-12-07T13:23:01;4.60;99.90
62573;DHT22;48626;51.678;5.806;2023-12-07T13:25:27;4.50;99.90
62573;DHT22;48626;51.678;5.806;2023-12-07T13:27:52;4.50;99.90
62573;DHT22;48626;51.678;5.806;2023-12-07T13:30:18;4.50;99.90
62573;DHT22;48626;51.678;5.806;2023-12-07T13:32:44;4.40;99.90
62573;DHT22;48626;51.678;5.806;2023-12-07T13:35:09;4.30;99.90
62573;DHT22;48626;51.678;5.806;2023-12-07T13:37:35;4.20;99.90
62573;DHT22;48626;51.678;5.806;2023-12-07T13:40:02;4.10;99.90
62573;DHT22;48626;51.678;5.806;2023-12-07T13:42:29;4.00;99.90
62573;DHT22;48626;51.678;5.806;2023-12-07T13:44:56;4.00;99.90
62573;DHT22;48626;51.678;5.806;2023-12-07T13:47:23;3.90;99.90
62573;DHT22;48626;51.678;5.806;2023-12-07T13:49:54;3.90;99.90
62573;DHT22;48626;51.678;5.806;2023-12-07T13:52:19;3.80;99.90
62573;DHT22;48626;51.678;5.806;2023-12-07T13:54:45;3.80;99.90
62573;DHT22;48626;51.678;5.806;2023-12-07T13:57:10;3.80;99.90
62573;DHT22;48626;51.678;5.806;2023-12-07T13:59:36;3.70;99.90
62573;DHT22;48626;51.678;5.806;2023-12-07T14:02:02;3.70;99.90
62573;DHT22;48626;51.678;5.806;2023-12-07T14:04:28;3.70;99.90
62573;DHT22;48626;51.678;5.806;2023-12-07T14:06:54;3.60;99.90
62573;DHT22;48626;51.678;5.806;2023-12-07T14:09:19;3.60;99.90
62573;DHT22;48626;51.678;5.806;2023-12-07T14:11:45;3.60;99.90
62573;DHT22;48626;51.678;5.806;2023-12-07T14:14:11;3.60;99.90
62573;DHT22;48626;51.678;5.806;2023-12-07T14:16:38;3.60;99.90
62573;DHT22;48626;51.678;5.806;2023-12-07T14:19:05;3.60;99.90
62573;DHT22;48626;51.678;5.806;2023-12-07T14:21:30;3.60;99.90
62573;DHT22;48626;51.678;5.806;2023-12-07T14:23:56;3.60;99.90
62573;DHT22;48626;51.678;5.806;2023-12-07T14:26:23;3.50;99.90
62573;DHT22;48626;51.678;5.806;2023-12-07T14:28:49;3.60;99.90
62573;DHT22;48626;51.678;5.806;2023-12-07T14:31:14;3.50;99.90
62573;DHT22;48626;51.678;5.806;2023-12-07T14:33:42;3.60;99.90
62573;DHT22;48626;51.678;5.806;2023-12-07T14:36:08;3.50;99.90
62573;DHT22;48626;51.678;5.806;2023-12-07T14:38:34;3.50;99.90
62573;DHT22;48626;51.678;5.806;2023-12-07T14:40:59;3.50;99.90
62573;DHT22;48626;51.678;5.806;2023-12-07T14:43:25;3.40;99.90
62573;DHT22;48626;51.678;5.806;2023-12-07T14:45:50;3.50;99.90
62573;DHT22;48626;51.678;5.806;2023-12-07T14:48:17;3.40;99.90
62573;DHT22;48626;51.678;5.806;2023-12-07T14:50:43;3.40;99.90
62573;DHT22;48626;51.678;5.806;2023-12-07T14:53:08;3.40;99.90
62573;DHT22;48626;51.678;5.806;2023-12-07T14:55:36;3.40;99.90
62573;DHT22;48626;51.678;5.806;2023-12-07T14:58:01;3.30;99.90
62573;DHT22;48626;51.678;5.806;2023-12-07T15:00:27;3.40;99.90
62573;DHT22;48626;51.678;5.806;2023-12-07T15:02:54;3.30;99.90
62573;DHT22;48626;51.678;5.806;2023-12-07T15:05:19;3.30;99.90
62573;DHT22;48626;51.678;5.806;2023-12-07T15:07:45;3.30;99.90
62573;DHT22;48626;51.678;5.806;2023-12-07T15:10:10;3.30;99.90
62573;DHT22;48626;51.678;5.806;2023-12-07T15:12:36;3.30;99.90
62573;DHT22;48626;51.678;5.806;2023-12-07T15:15:01;3.20;99.90
62573;DHT22;48626;51.678;5.806;2023-12-07T15:17:31;3.20;99.90
62573;DHT22;48626;51.678;5.806;2023-12-07T15:19:56;3.20;99.90
62573;DHT22;48626;51.678;5.806;2023-12-07T15:22:22;3.10;99.90
62573;DHT22;48626;51.678;5.806;2023-12-07T15:24:48;3.10;99.90
62573;DHT22;48626;51.678;5.806;2023-12-07T15:27:13;3.10;99.90
62573;DHT22;48626;51.678;5.806;2023-12-07T15:29:39;3.10;99.90
62573;DHT22;48626;51.678;5.806;2023-12-07T15:32:08;3.00;99.90
62573;DHT22;48626;51.678;5.806;2023-12-07T15:34:34;3.00;99.90
62573;DHT22;48626;51.678;5.806;2023-12-07T15:37:00;2.90;99.90
62573;DHT22;48626;51.678;5.806;2023-12-07T15:39:26;2.90;99.90
62573;DHT22;48626;51.678;5.806;2023-12-07T15:41:51;2.90;99.90